MET'MAP v2.0
soon released !

Expected late october,
this new version will be
more efficient, smarter,
and hosted on a brand new
server x3 powerfull...
...and still free !


Not compatible ?
Try the mobile version !

LOG IN : | Subscribe | Disclaimer | Who is Orbifly ? |
ICAO code :
Legend : VFR Marginal VFR IFR Intensive IFR Very Intensive IFR
Visi :
Ceiling :
>= 8 km
>= 3000ft
5 to 8 km
1000 to 3000 ft
1500m to 5 km
500 to 1000 ft
800 to 1500m
200 to 500 ft
< 800m
< 200 ft

METAR - LZSL Sliac - 01 Oct 2020 20:21 UTC - Data Source NOAA   


- Airport Elevation : 1043 ft
- IATA code : SLD
- No reported NOTAMs.


LZSL - Sliac

Latest METAR recorded : 2015/08/11 08:00 LZSL 110800Z VRB01KT CAVOK 27/19 Q1016
TAF TAF LZSL
Valid from the 01 at 18:00 until the 02 at 03:00 UTC


011700Z 0118/0203 18004KT 9999 -RA FEW012 BKN030 OVC040
TEMPO 0119/0203 4000 SCT004 BKN014 OVC020
PROB40
TEMPO 0120/0203 2500 SCT003 BKN009 OVC016

Source NOAA


MET'MAP, your aeronautical weather chart ! - Copyright ORBIFLY December 2007

Programming & Development : Alexandra Zaïnal
Co-Developer : Marc-Olivier Méhu
Technical & hardware support : Manuel Goepfert
Concept & Financing : Baudouin d'Aumeries